ジッダ の空港の天気 - METARとTAF

キング・アブドゥルアズィーズ国際空港(ジッダ) ( OEJN / JED ) - サウジアラビア ジッダ
飛行場実況気象(Metar)
観測時間04/26 19:00 AST (04/26 16:00 UTC)
風向・風速西南西 4m/s
視程8000m
天気現象
なし
気温29℃
湿度66%
気圧1006hPa
METAROEJN 261600Z 24007KT 8000 NSC 29/22 Q1006 NOSIG
過去の天気等 Google飛行場航空写真 Wunderground天気予報

過去48時間のMETAR

飛行場予報(TAF)
発表時間: 4/26 14:00 AST (4/26 11:00 UTC)
予報対象時間: 26日15時 AST ~ 27日21時 AST
風向・風速西 4m/s 瞬間風速 9m/s
視程7000m
少しの雲 雲底高度 1220m
全天の4割程度の雲 雲底高度 3050m
26日17時 AST ~ 26日23時 AST に一時的に
視程3000m
天気現象風塵 高い風塵
少しの積乱雲 雲底高度 910m
全天の4割程度の雲 雲底高度 1220m
26日21時 AST ~ 26日23時 AST に徐々に
風向・風速北北東 4m/s
TAF OEJN 261100Z 2612/2718 27008G18KT 7000 FEW040 SCT100
TEMPO 2614/2620 3000 DU BLDU FEW030CB SCT040
BECMG 2618/2620 02008KT